createdAt,value
2023-11-22T00:01:53.541Z,61.12
2023-11-22T00:04:26.187Z,61.46
2023-11-22T00:06:58.290Z,61.43
2023-11-22T00:09:31.041Z,61.34
2023-11-22T00:12:03.826Z,61.18
2023-11-22T00:14:36.376Z,60.85
2023-11-22T00:17:08.820Z,60.75
2023-11-22T00:19:41.447Z,60.42
2023-11-22T00:22:14.770Z,60.60
2023-11-22T00:24:51.484Z,60.60
2023-11-22T00:27:24.473Z,60.30
2023-11-22T00:29:56.855Z,60.45
2023-11-22T00:32:28.939Z,60.18
2023-11-22T00:35:01.186Z,59.95
2023-11-22T00:37:33.385Z,60.15
2023-11-22T00:40:11.797Z,60.08
2023-11-22T00:42:44.380Z,60.05
2023-11-22T00:45:16.471Z,59.81
2023-11-22T00:47:49.251Z,59.61
2023-11-22T00:50:21.882Z,59.55
2023-11-22T00:52:54.916Z,59.75
2023-11-22T00:55:28.129Z,59.33
2023-11-22T00:58:05.197Z,59.21
2023-11-22T01:00:37.258Z,59.08
2023-11-22T01:03:13.238Z,59.46
2023-11-22T01:05:47.782Z,59.04
2023-11-22T01:08:20.253Z,59.20
2023-11-22T01:10:52.643Z,59.12
2023-11-22T01:13:24.649Z,59.10
2023-11-22T01:15:56.939Z,58.97
2023-11-22T01:18:29.749Z,58.97
2023-11-22T01:21:01.823Z,58.87
2023-11-22T01:23:34.118Z,58.94
2023-11-22T01:26:06.707Z,59.20
2023-11-22T01:28:38.781Z,59.07
2023-11-22T01:31:10.926Z,59.02
2023-11-22T01:33:42.998Z,59.50
2023-11-22T01:36:16.359Z,59.52
2023-11-22T01:38:48.543Z,59.50
2023-11-22T01:41:20.857Z,59.34
2023-11-22T01:43:52.827Z,58.95
2023-11-22T01:46:27.484Z,59.24
2023-11-22T01:48:59.625Z,59.06
2023-11-22T01:51:32.216Z,59.07
2023-11-22T01:54:04.540Z,58.80
2023-11-22T01:56:39.860Z,59.02
2023-11-22T01:59:12.042Z,58.94
2023-11-22T02:01:44.614Z,58.87
2023-11-22T02:04:17.277Z,58.82
2023-11-22T02:06:51.350Z,59.00
2023-11-22T02:09:23.427Z,58.91
2023-11-22T02:11:55.485Z,58.78
2023-11-22T02:14:27.527Z,59.01
2023-11-22T02:17:00.087Z,58.78
2023-11-22T02:19:32.619Z,58.69
2023-11-22T02:22:04.925Z,58.60
2023-11-22T02:24:36.883Z,58.45
2023-11-22T02:27:10.025Z,58.45
2023-11-22T02:29:42.519Z,58.50
2023-11-22T02:32:15.815Z,58.87
2023-11-22T02:34:48.299Z,58.99
2023-11-22T02:37:20.428Z,58.98
2023-11-22T02:40:02.815Z,58.81
2023-11-22T02:42:34.784Z,58.90
2023-11-22T02:45:08.247Z,58.68
2023-11-22T02:47:41.123Z,58.81
2023-11-22T02:50:13.777Z,58.99
2023-11-22T02:52:45.921Z,59.08
2023-11-22T02:55:18.324Z,59.08
2023-11-22T02:57:50.492Z,59.07
2023-11-22T03:00:23.559Z,59.39
2023-11-22T03:02:57.448Z,58.82
2023-11-22T03:05:29.917Z,58.94
2023-11-22T03:08:02.559Z,59.17
2023-11-22T03:10:34.697Z,59.17
2023-11-22T03:13:06.687Z,59.49
2023-11-22T03:15:38.833Z,59.50
2023-11-22T03:18:12.345Z,59.20
2023-11-22T03:20:44.623Z,59.43
2023-11-22T03:23:18.385Z,59.55
2023-11-22T03:25:50.584Z,59.86
2023-11-22T03:28:23.660Z,59.68
2023-11-22T03:30:55.794Z,59.80
2023-11-22T03:33:27.939Z,60.03
2023-11-22T03:36:00.298Z,59.78
2023-11-22T03:38:32.476Z,60.10
2023-11-22T03:41:04.572Z,59.96
2023-11-22T03:43:37.956Z,59.69
2023-11-22T03:46:10.937Z,59.80
2023-11-22T03:48:43.026Z,59.81
2023-11-22T03:51:15.052Z,59.74
2023-11-22T03:53:47.139Z,59.72
2023-11-22T03:56:19.163Z,59.68
2023-11-22T03:58:51.589Z,59.78
2023-11-22T04:01:24.056Z,59.98
2023-11-22T04:03:56.129Z,60.08
2023-11-22T04:06:29.132Z,59.71
2023-11-22T04:09:02.709Z,59.90
2023-11-22T04:11:35.465Z,59.69
2023-11-22T04:14:07.708Z,59.71
2023-11-22T04:16:40.268Z,59.87
2023-11-22T04:19:12.650Z,59.89
2023-11-22T04:21:45.649Z,60.06
2023-11-22T04:24:18.859Z,60.07
2023-11-22T04:26:51.031Z,60.07
2023-11-22T04:29:23.239Z,59.94
2023-11-22T04:31:56.144Z,60.24
2023-11-22T04:34:28.420Z,60.17
2023-11-22T04:37:00.508Z,60.11
2023-11-22T04:39:32.693Z,60.05
2023-11-22T04:42:04.884Z,60.10
2023-11-22T04:44:36.982Z,60.06
2023-11-22T04:47:09.378Z,60.09
2023-11-22T04:49:42.251Z,60.06
2023-11-22T04:52:14.738Z,60.25
2023-11-22T04:54:46.716Z,60.33
2023-11-22T04:57:18.843Z,60.62
2023-11-22T04:59:50.967Z,60.90
2023-11-22T05:02:23.756Z,60.96
2023-11-22T05:04:55.821Z,60.75
2023-11-22T05:07:27.960Z,60.98
2023-11-22T05:10:00.050Z,61.19
2023-11-22T05:12:32.310Z,61.25
2023-11-22T05:15:04.784Z,61.03
2023-11-22T05:17:37.414Z,61.22
2023-11-22T05:20:13.202Z,61.08
2023-11-22T05:22:45.339Z,61.08
2023-11-22T05:25:18.535Z,61.00
2023-11-22T05:27:51.884Z,60.81
2023-11-22T05:30:23.948Z,60.83
2023-11-22T05:32:56.047Z,60.83
2023-11-22T05:35:28.077Z,61.15
2023-11-22T05:38:00.169Z,61.23
2023-11-22T05:40:32.536Z,61.18
2023-11-22T05:43:04.953Z,61.56
2023-11-22T05:45:37.036Z,61.39
2023-11-22T05:48:09.254Z,61.15
2023-11-22T05:50:41.707Z,61.09
2023-11-22T05:53:20.368Z,61.10
2023-11-22T05:55:54.042Z,61.02
2023-11-22T05:58:26.142Z,61.28
2023-11-22T06:00:58.905Z,61.20
2023-11-22T06:03:31.270Z,61.20
2023-11-22T06:06:04.252Z,61.44
2023-11-22T06:08:36.843Z,61.66
2023-11-22T06:11:08.912Z,61.77
2023-11-22T06:13:40.996Z,61.86
2023-11-22T06:16:13.782Z,61.56
2023-11-22T06:18:45.935Z,61.43
2023-11-22T06:21:18.499Z,61.70
2023-11-22T06:23:51.126Z,61.65
2023-11-22T06:26:24.030Z,61.95
2023-11-22T06:28:57.017Z,62.12
2023-11-22T06:31:30.358Z,61.90
2023-11-22T06:34:04.276Z,61.99
2023-11-22T06:36:37.407Z,61.89
2023-11-22T06:39:10.453Z,61.85
2023-11-22T06:41:46.096Z,61.68
2023-11-22T06:44:19.771Z,61.65
2023-11-22T06:46:51.949Z,61.74
2023-11-22T06:49:24.136Z,61.81
2023-11-22T06:51:56.180Z,61.55
2023-11-22T06:54:28.369Z,61.75
2023-11-22T06:57:00.479Z,61.71
2023-11-22T06:59:33.088Z,61.82
2023-11-22T07:02:05.541Z,62.00
2023-11-22T07:04:38.398Z,61.77
2023-11-22T07:07:12.401Z,61.81
2023-11-22T07:09:47.348Z,61.86
2023-11-22T07:12:20.302Z,61.98
2023-11-22T07:14:52.309Z,61.91
2023-11-22T07:17:24.628Z,62.01
2023-11-22T07:19:58.444Z,62.14
2023-11-22T07:22:31.709Z,62.04
2023-11-22T07:25:04.770Z,62.20
2023-11-22T07:27:36.988Z,62.48
2023-11-22T07:30:14.127Z,62.93
2023-11-22T07:32:46.390Z,62.76
2023-11-22T07:35:21.217Z,62.76
2023-11-22T07:37:53.427Z,62.70
2023-11-22T07:40:25.456Z,62.95
2023-11-22T07:42:57.606Z,62.57
2023-11-22T07:45:29.553Z,62.68
2023-11-22T07:48:01.935Z,62.75
2023-11-22T07:50:34.593Z,62.54
2023-11-22T07:53:06.696Z,62.51
2023-11-22T07:55:39.156Z,62.53
2023-11-22T07:58:12.195Z,62.63
2023-11-22T08:00:46.838Z,62.78
2023-11-22T08:03:19.812Z,62.63
2023-11-22T08:05:55.064Z,62.38
2023-11-22T08:08:27.963Z,62.30
2023-11-22T08:11:00.027Z,61.75
2023-11-22T08:13:32.459Z,61.63
2023-11-22T08:16:04.684Z,61.95
2023-11-22T08:18:36.918Z,62.60
2023-11-22T08:21:09.473Z,63.01
2023-11-22T08:23:41.660Z,62.98
2023-11-22T08:26:13.887Z,62.83
2023-11-22T08:28:46.241Z,62.79
2023-11-22T08:31:18.835Z,63.18
2023-11-22T08:33:51.089Z,63.16
2023-11-22T08:36:24.716Z,63.01
2023-11-22T08:38:56.775Z,62.46
2023-11-22T08:41:30.264Z,61.43
2023-11-22T08:44:02.319Z,61.91
2023-11-22T08:46:34.475Z,62.17
2023-11-22T08:49:07.709Z,61.43
2023-11-22T08:51:40.554Z,61.21
2023-11-22T08:54:12.798Z,60.97
2023-11-22T08:56:44.781Z,60.90
2023-11-22T08:59:17.990Z,59.72
2023-11-22T09:01:50.204Z,59.76
2023-11-22T09:04:25.538Z,59.49
2023-11-22T09:06:57.811Z,59.23
2023-11-22T09:09:32.280Z,59.43
2023-11-22T09:12:03.193Z,58.40
2023-11-22T09:14:35.285Z,58.83
2023-11-22T09:17:08.243Z,59.35
2023-11-22T09:19:40.403Z,59.85
2023-11-22T09:22:14.410Z,60.10
2023-11-22T09:24:47.066Z,59.60
2023-11-22T09:27:19.464Z,59.12
2023-11-22T09:29:51.824Z,59.79
2023-11-22T09:32:24.774Z,58.92
2023-11-22T09:34:59.265Z,57.99
2023-11-22T09:37:30.893Z,57.55
2023-11-22T09:40:04.947Z,57.38
2023-11-22T09:42:36.518Z,56.08
2023-11-22T09:45:10.321Z,56.37
2023-11-22T09:47:42.662Z,55.88
2023-11-22T09:50:20.604Z,56.29
2023-11-22T09:52:54.806Z,56.21
2023-11-22T09:55:31.155Z,55.64
2023-11-22T09:58:05.174Z,55.09
2023-11-22T10:00:37.892Z,55.17
2023-11-22T10:03:14.272Z,55.25
2023-11-22T10:05:46.979Z,55.01
2023-11-22T10:08:20.070Z,55.00
2023-11-22T10:10:55.283Z,54.74
2023-11-22T10:13:27.983Z,54.33
2023-11-22T10:16:13.379Z,54.26
2023-11-22T10:18:47.636Z,54.15
2023-11-22T10:21:29.465Z,54.03
2023-11-22T10:24:05.053Z,53.08
2023-11-22T10:26:38.312Z,53.63
2023-11-22T10:29:10.458Z,53.70
2023-11-22T10:31:43.649Z,53.29
2023-11-22T10:34:16.094Z,53.05
2023-11-22T10:36:49.401Z,53.75
2023-11-22T10:39:24.358Z,53.24
2023-11-22T10:41:56.855Z,52.90
2023-11-22T10:44:28.877Z,52.51
2023-11-22T10:47:02.252Z,52.44
2023-11-22T10:49:34.385Z,52.49
2023-11-22T10:52:10.172Z,52.89
2023-11-22T10:54:47.138Z,52.26
2023-11-22T10:57:21.337Z,52.01
2023-11-22T10:59:57.533Z,52.12
2023-11-22T11:02:30.677Z,52.70
2023-11-22T11:05:17.177Z,52.17
2023-11-22T11:08:11.716Z,52.02
2023-11-22T11:10:44.946Z,52.35
2023-11-22T11:13:17.937Z,52.31
2023-11-22T11:15:50.361Z,53.02
2023-11-22T11:18:23.200Z,51.88
2023-11-22T11:20:57.474Z,51.63
2023-11-22T11:23:30.604Z,51.12
2023-11-22T11:26:12.532Z,51.52
2023-11-22T11:28:48.684Z,51.61
2023-11-22T11:31:24.447Z,51.32
2023-11-22T11:34:00.482Z,51.38
2023-11-22T11:36:33.859Z,51.32
2023-11-22T11:39:12.145Z,50.99
2023-11-22T11:41:45.423Z,50.57
2023-11-22T11:44:18.222Z,50.68
2023-11-22T11:46:53.835Z,51.84
2023-11-22T11:49:26.185Z,52.13
2023-11-22T11:51:58.197Z,51.32
2023-11-22T11:54:31.208Z,51.30
2023-11-22T11:57:04.046Z,50.40
2023-11-22T11:59:37.265Z,50.02
2023-11-22T12:02:09.581Z,50.62
2023-11-22T12:04:45.024Z,50.23
2023-11-22T12:07:17.495Z,51.36
2023-11-22T12:09:49.670Z,49.53
2023-11-22T12:12:22.325Z,49.82
2023-11-22T12:14:54.348Z,50.16
2023-11-22T12:17:27.697Z,49.98
2023-11-22T12:20:16.360Z,49.39
2023-11-22T12:22:49.073Z,49.63
2023-11-22T12:25:22.298Z,49.47
2023-11-22T12:27:57.799Z,49.83
2023-11-22T12:30:35.192Z,49.67
2023-11-22T12:33:09.593Z,49.21
2023-11-22T12:35:42.254Z,50.00
2023-11-22T12:38:14.601Z,49.75
2023-11-22T12:40:49.926Z,49.87
2023-11-22T12:43:22.004Z,50.14
2023-11-22T12:46:03.021Z,51.34
2023-11-22T12:48:37.030Z,50.17
2023-11-22T12:51:18.616Z,50.35
2023-11-22T12:53:51.541Z,50.36
2023-11-22T12:56:23.932Z,50.01
2023-11-22T12:58:56.015Z,49.71
2023-11-22T13:01:29.297Z,49.02
2023-11-22T13:04:01.542Z,49.98
2023-11-22T13:06:34.039Z,50.70
2023-11-22T13:09:06.480Z,50.95
2023-11-22T13:11:39.000Z,50.65
2023-11-22T13:14:11.192Z,51.26
2023-11-22T13:16:44.212Z,51.64
2023-11-22T13:19:16.495Z,50.91
2023-11-22T13:21:48.992Z,50.55
2023-11-22T13:24:21.968Z,50.60
2023-11-22T13:26:54.000Z,49.66
2023-11-22T13:29:27.272Z,50.33
2023-11-22T13:32:00.568Z,51.16
2023-11-22T13:34:32.591Z,50.28
2023-11-22T13:37:05.842Z,51.57
2023-11-22T13:39:37.944Z,51.96
2023-11-22T13:42:10.189Z,51.37
2023-11-22T13:44:43.363Z,51.58
2023-11-22T13:47:16.054Z,51.12
2023-11-22T13:49:48.269Z,51.18
2023-11-22T13:52:20.241Z,51.68
2023-11-22T13:54:56.612Z,51.99
2023-11-22T13:57:28.628Z,52.06
2023-11-22T14:00:01.018Z,51.36
2023-11-22T14:02:33.314Z,50.93
2023-11-22T14:05:08.722Z,51.87
2023-11-22T14:07:41.211Z,54.81
2023-11-22T14:10:17.435Z,55.65
2023-11-22T14:12:49.456Z,55.76
2023-11-22T14:15:21.991Z,55.01
2023-11-22T14:17:53.990Z,54.48
2023-11-22T14:20:27.062Z,54.63
2023-11-22T14:22:59.140Z,54.36
2023-11-22T14:25:32.603Z,55.62
2023-11-22T14:28:05.384Z,55.02
2023-11-22T14:30:38.319Z,54.65
2023-11-22T14:33:11.092Z,55.85
2023-11-22T14:35:45.419Z,56.42
2023-11-22T14:38:19.012Z,56.68
2023-11-22T14:40:51.050Z,57.61
2023-11-22T14:43:23.721Z,56.53
2023-11-22T14:45:56.815Z,55.31
2023-11-22T14:48:28.943Z,55.13
2023-11-22T14:51:03.473Z,56.03
2023-11-22T14:53:35.546Z,56.86
2023-11-22T14:56:08.911Z,57.57
2023-11-22T14:58:41.499Z,57.80
2023-11-22T15:01:13.695Z,58.15
2023-11-22T15:03:46.043Z,58.18
2023-11-22T15:06:18.239Z,58.47
2023-11-22T15:08:52.081Z,58.77
2023-11-22T15:11:24.531Z,58.97
2023-11-22T15:13:56.647Z,59.48
2023-11-22T15:16:29.037Z,59.60
2023-11-22T15:19:03.258Z,59.95
2023-11-22T15:21:35.822Z,60.02
2023-11-22T15:24:09.063Z,60.10
2023-11-22T15:26:41.177Z,60.24
2023-11-22T15:29:13.318Z,60.26
2023-11-22T15:31:45.656Z,60.35
2023-11-22T15:34:17.936Z,59.46
2023-11-22T15:36:50.598Z,59.08
2023-11-22T15:39:23.462Z,59.11
2023-11-22T15:41:55.659Z,59.23
2023-11-22T15:44:27.988Z,58.92
2023-11-22T15:47:00.210Z,58.96
2023-11-22T15:49:32.414Z,59.27
2023-11-22T15:52:04.599Z,59.21
2023-11-22T15:54:36.578Z,59.38
2023-11-22T15:57:09.965Z,59.56
2023-11-22T15:59:42.360Z,59.90
2023-11-22T16:02:14.615Z,60.09
2023-11-22T16:04:47.409Z,60.44
2023-11-22T16:07:19.757Z,60.66
2023-11-22T16:09:52.654Z,60.98
2023-11-22T16:12:24.580Z,60.79
2023-11-22T16:14:56.765Z,60.96
2023-11-22T16:17:28.835Z,61.01
2023-11-22T16:20:01.974Z,61.05
2023-11-22T16:22:34.015Z,61.02
2023-11-22T16:25:07.096Z,61.20
2023-11-22T16:27:39.219Z,61.45
2023-11-22T16:30:12.001Z,61.82
2023-11-22T16:32:44.407Z,61.72
2023-11-22T16:35:17.458Z,61.54
2023-11-22T16:37:49.772Z,61.64
2023-11-22T16:40:22.378Z,61.90
2023-11-22T16:42:54.453Z,61.89
2023-11-22T16:45:27.284Z,62.41
2023-11-22T16:48:00.136Z,62.53
2023-11-22T16:50:32.364Z,62.60
2023-11-22T16:53:04.962Z,62.78
2023-11-22T16:55:37.044Z,62.90
2023-11-22T16:58:09.183Z,62.85
2023-11-22T17:00:41.751Z,62.85
2023-11-22T17:03:19.518Z,62.94
2023-11-22T17:05:55.147Z,63.25
2023-11-22T17:08:27.160Z,63.13
2023-11-22T17:10:59.226Z,63.13
2023-11-22T17:13:31.975Z,63.07
2023-11-22T17:16:04.138Z,63.05
2023-11-22T17:18:36.286Z,63.17
2023-11-22T17:21:08.948Z,63.12
2023-11-22T17:23:40.938Z,62.83
2023-11-22T17:26:13.554Z,62.94
2023-11-22T17:28:45.895Z,62.97
2023-11-22T17:31:19.755Z,62.94
2023-11-22T17:33:52.278Z,63.00
2023-11-22T17:36:24.307Z,63.24
2023-11-22T17:38:57.882Z,63.32
2023-11-22T17:41:34.045Z,63.53
2023-11-22T17:44:08.416Z,63.70
2023-11-22T17:46:43.231Z,63.87
2023-11-22T17:49:15.799Z,63.88
2023-11-22T17:51:55.098Z,63.42
2023-11-22T17:54:27.070Z,63.31
2023-11-22T17:56:59.085Z,63.15
2023-11-22T17:59:31.452Z,62.63
2023-11-22T18:02:03.834Z,62.28
2023-11-22T18:04:36.505Z,62.41
2023-11-22T18:07:14.853Z,62.41
2023-11-22T18:09:47.925Z,62.57
2023-11-22T18:12:21.128Z,62.58
2023-11-22T18:14:53.267Z,62.33
2023-11-22T18:17:25.526Z,62.34
2023-11-22T18:19:59.045Z,62.33
2023-11-22T18:22:31.161Z,62.43
2023-11-22T18:25:03.413Z,62.32
2023-11-22T18:27:35.426Z,61.84
2023-11-22T18:30:11.423Z,61.96
2023-11-22T18:32:44.211Z,62.26
2023-11-22T18:35:16.630Z,61.90
2023-11-22T18:37:49.335Z,61.88
2023-11-22T18:40:22.320Z,62.01
2023-11-22T18:42:54.820Z,61.59
2023-11-22T18:45:26.823Z,61.65
2023-11-22T18:47:59.044Z,61.64
2023-11-22T18:50:31.406Z,62.38
2023-11-22T18:53:03.573Z,62.57
2023-11-22T18:55:35.667Z,62.60
2023-11-22T18:58:09.181Z,62.84
2023-11-22T19:00:41.266Z,62.74
2023-11-22T19:03:13.324Z,62.75
2023-11-22T19:05:45.497Z,62.58
2023-11-22T19:08:17.623Z,62.70
2023-11-22T19:10:49.673Z,62.61
2023-11-22T19:13:22.717Z,62.73
2023-11-22T19:15:56.155Z,62.40
2023-11-22T19:18:29.544Z,62.26
2023-11-22T19:21:04.536Z,62.40
2023-11-22T19:23:38.620Z,62.35
2023-11-22T19:26:10.954Z,62.42
2023-11-22T19:28:44.399Z,63.07
2023-11-22T19:31:17.064Z,63.44
2023-11-22T19:33:49.597Z,63.19
2023-11-22T19:36:26.720Z,63.44
2023-11-22T19:38:59.068Z,63.21
2023-11-22T19:41:32.109Z,62.93
2023-11-22T19:44:04.564Z,63.82
2023-11-22T19:46:36.577Z,63.73
2023-11-22T19:49:11.098Z,64.11
2023-11-22T19:51:43.865Z,63.78
2023-11-22T19:54:16.078Z,64.26
2023-11-22T19:56:48.529Z,64.06
2023-11-22T19:59:20.641Z,64.32
2023-11-22T20:01:53.894Z,65.02
2023-11-22T20:04:26.335Z,64.64
2023-11-22T20:06:58.455Z,64.70
2023-11-22T20:09:32.083Z,65.28
2023-11-22T20:12:04.580Z,65.59
2023-11-22T20:14:36.800Z,65.62
2023-11-22T20:17:10.642Z,66.40
2023-11-22T20:19:42.762Z,66.47
2023-11-22T20:22:14.925Z,65.81
2023-11-22T20:24:47.919Z,66.11
2023-11-22T20:27:20.193Z,66.58
2023-11-22T20:29:53.289Z,67.28
2023-11-22T20:32:26.263Z,67.55
2023-11-22T20:34:58.567Z,67.74
2023-11-22T20:37:30.713Z,67.19
2023-11-22T20:40:04.356Z,66.99
2023-11-22T20:42:36.455Z,67.90
2023-11-22T20:45:12.074Z,67.75
2023-11-22T20:47:46.795Z,67.95
2023-11-22T20:50:19.219Z,68.39
2023-11-22T20:52:51.341Z,68.23
2023-11-22T20:55:23.780Z,68.36
2023-11-22T20:57:56.767Z,69.09
2023-11-22T21:00:31.700Z,69.46
2023-11-22T21:03:04.398Z,70.40
2023-11-22T21:05:36.910Z,71.51
2023-11-22T21:08:16.498Z,71.81
2023-11-22T21:10:51.458Z,71.75
2023-11-22T21:13:23.450Z,71.65
2023-11-22T21:15:56.373Z,71.57
2023-11-22T21:18:28.940Z,72.76
2023-11-22T21:21:01.304Z,72.41
2023-11-22T21:23:34.610Z,72.08
2023-11-22T21:26:08.356Z,72.65
2023-11-22T21:28:40.398Z,74.00
2023-11-22T21:31:19.329Z,74.46
2023-11-22T21:33:52.228Z,74.62
2023-11-22T21:36:24.449Z,74.49
2023-11-22T21:38:56.831Z,74.13
2023-11-22T21:41:28.867Z,73.90
2023-11-22T21:44:00.930Z,73.50
2023-11-22T21:46:34.657Z,73.56
2023-11-22T21:49:07.930Z,73.85
2023-11-22T21:51:39.989Z,74.39
2023-11-22T21:54:12.268Z,74.47
2023-11-22T21:56:47.807Z,74.29
2023-11-22T21:59:20.366Z,74.26
2023-11-22T22:01:52.810Z,73.85
2023-11-22T22:04:25.604Z,73.53
2023-11-22T22:06:57.683Z,72.17
2023-11-22T22:09:30.034Z,72.84
2023-11-22T22:12:02.232Z,73.05
2023-11-22T22:14:34.478Z,73.10
2023-11-22T22:17:07.241Z,73.03
2023-11-22T22:19:39.588Z,72.68
2023-11-22T22:22:11.768Z,73.89
2023-11-22T22:24:43.970Z,74.39
2023-11-22T22:27:34.760Z,75.27
2023-11-22T22:30:09.506Z,75.74
2023-11-22T22:32:41.891Z,74.62
2023-11-22T22:35:13.936Z,73.83
2023-11-22T22:37:47.548Z,73.02
2023-11-22T22:40:19.676Z,73.64
2023-11-22T22:42:51.781Z,74.51
2023-11-22T22:45:24.464Z,73.90
2023-11-22T22:47:56.911Z,74.84
2023-11-22T22:50:29.072Z,75.86
2023-11-22T22:53:01.639Z,75.52
2023-11-22T22:55:33.695Z,75.38
2023-11-22T22:58:05.738Z,74.86
2023-11-22T23:00:40.976Z,75.64
2023-11-22T23:03:13.952Z,75.35
2023-11-22T23:05:46.448Z,76.25
2023-11-22T23:08:19.238Z,76.20
2023-11-22T23:10:52.184Z,75.37
2023-11-22T23:13:24.242Z,76.82
2023-11-22T23:15:56.263Z,76.00
2023-11-22T23:18:28.646Z,75.51
2023-11-22T23:21:01.073Z,75.99
2023-11-22T23:23:33.185Z,75.61
2023-11-22T23:26:06.542Z,75.27
2023-11-22T23:28:38.813Z,75.93
2023-11-22T23:31:11.644Z,76.07
2023-11-22T23:33:43.871Z,76.70
2023-11-22T23:36:16.465Z,77.17
2023-11-22T23:38:48.545Z,76.91
2023-11-22T23:41:20.632Z,77.16
2023-11-22T23:43:52.674Z,77.26
2023-11-22T23:46:25.308Z,77.39
2023-11-22T23:48:57.436Z,78.62
2023-11-22T23:51:29.890Z,78.40
2023-11-22T23:54:02.727Z,78.40
2023-11-22T23:56:36.358Z,79.02
2023-11-22T23:59:09.442Z,78.62
